sensor_id;sensor_type;location;lat;lon;timestamp;pressure;altitude;pressure_sealevel;temperature
31921;BMP280;66485;52.128;4.436;2023-04-03T00:00:59;103174.88;;;17.71
31921;BMP280;66485;52.128;4.436;2023-04-03T00:03:24;103180.25;;;17.67
31921;BMP280;66485;52.128;4.436;2023-04-03T00:05:49;103175.66;;;17.71
31921;BMP280;66485;52.128;4.436;2023-04-03T00:08:15;103178.44;;;17.75
31921;BMP280;66485;52.128;4.436;2023-04-03T00:10:41;103179.41;;;17.83
31921;BMP280;66485;52.128;4.436;2023-04-03T00:13:06;103174.28;;;17.77
31921;BMP280;66485;52.128;4.436;2023-04-03T00:15:33;103179.69;;;17.77
31921;BMP280;66485;52.128;4.436;2023-04-03T00:17:58;103173.56;;;17.81
31921;BMP280;66485;52.128;4.436;2023-04-03T00:20:24;103176.66;;;17.79
31921;BMP280;66485;52.128;4.436;2023-04-03T00:22:49;103175.84;;;17.78
31921;BMP280;66485;52.128;4.436;2023-04-03T00:25:15;103179.78;;;17.81
31921;BMP280;66485;52.128;4.436;2023-04-03T00:27:40;103177.56;;;17.87
31921;BMP280;66485;52.128;4.436;2023-04-03T00:30:08;103177.56;;;17.87
31921;BMP280;66485;52.128;4.436;2023-04-03T00:32:34;103180.63;;;17.85
31921;BMP280;66485;52.128;4.436;2023-04-03T00:34:59;103182.53;;;17.85
31921;BMP280;66485;52.128;4.436;2023-04-03T00:37:24;103176.38;;;17.84
31921;BMP280;66485;52.128;4.436;2023-04-03T00:39:50;103181.41;;;17.86
31921;BMP280;66485;52.128;4.436;2023-04-03T00:42:15;103181.41;;;17.86
31921;BMP280;66485;52.128;4.436;2023-04-03T00:47:08;103191.13;;;17.87
31921;BMP280;66485;52.128;4.436;2023-04-03T00:49:35;103184.59;;;17.88
31921;BMP280;66485;52.128;4.436;2023-04-03T00:52:02;103187.56;;;17.83
31921;BMP280;66485;52.128;4.436;2023-04-03T00:54:27;103184.13;;;17.86
31921;BMP280;66485;52.128;4.436;2023-04-03T00:56:55;103188.34;;;17.83
31921;BMP280;66485;52.128;4.436;2023-04-03T00:59:30;103186.25;;;17.76
31921;BMP280;66485;52.128;4.436;2023-04-03T01:01:56;103186.69;;;17.78
31921;BMP280;66485;52.128;4.436;2023-04-03T01:07:00;103187.13;;;17.81
31921;BMP280;66485;52.128;4.436;2023-04-03T01:09:28;103189.66;;;17.73
31921;BMP280;66485;52.128;4.436;2023-04-03T01:11:54;103193.25;;;17.77
31921;BMP280;66485;52.128;4.436;2023-04-03T01:14:19;103199.34;;;17.74
31921;BMP280;66485;52.128;4.436;2023-04-03T01:16:54;103195.63;;;17.79
31921;BMP280;66485;52.128;4.436;2023-04-03T01:19:21;103192.38;;;17.73
31921;BMP280;66485;52.128;4.436;2023-04-03T01:24:36;103205.69;;;17.78
31921;BMP280;66485;52.128;4.436;2023-04-03T01:27:05;103204.41;;;17.76
31921;BMP280;66485;52.128;4.436;2023-04-03T01:29:31;103204.41;;;17.76
31921;BMP280;66485;52.128;4.436;2023-04-03T01:31:59;103199.00;;;17.76
31921;BMP280;66485;52.128;4.436;2023-04-03T01:34:26;103197.81;;;17.73
31921;BMP280;66485;52.128;4.436;2023-04-03T01:36:52;103199.34;;;17.74
31921;BMP280;66485;52.128;4.436;2023-04-03T01:39:17;103197.00;;;17.73
31921;BMP280;66485;52.128;4.436;2023-04-03T01:41:43;103209.00;;;17.72
31921;BMP280;66485;52.128;4.436;2023-04-03T01:44:08;103199.72;;;17.73
31921;BMP280;66485;52.128;4.436;2023-04-03T01:46:34;103197.63;;;17.66
31921;BMP280;66485;52.128;4.436;2023-04-03T01:48:59;103202.38;;;17.69
31921;BMP280;66485;52.128;4.436;2023-04-03T01:51:25;103197.34;;;17.71
31921;BMP280;66485;52.128;4.436;2023-04-03T01:53:50;103194.22;;;17.69
31921;BMP280;66485;52.128;4.436;2023-04-03T01:56:16;103194.94;;;17.66
31921;BMP280;66485;52.128;4.436;2023-04-03T01:58:41;103198.88;;;17.69
31921;BMP280;66485;52.128;4.436;2023-04-03T02:01:07;103208.91;;;17.68
31921;BMP280;66485;52.128;4.436;2023-04-03T02:03:32;103208.91;;;17.68
31921;BMP280;66485;52.128;4.436;2023-04-03T02:05:58;103208.91;;;17.68
31921;BMP280;66485;52.128;4.436;2023-04-03T02:08:23;103206.22;;;17.68
31921;BMP280;66485;52.128;4.436;2023-04-03T02:10:49;103204.97;;;17.66
31921;BMP280;66485;52.128;4.436;2023-04-03T02:13:15;103204.97;;;17.66
31921;BMP280;66485;52.128;4.436;2023-04-03T02:15:41;103211.44;;;17.61
31921;BMP280;66485;52.128;4.436;2023-04-03T02:18:07;103216.97;;;17.65
31921;BMP280;66485;52.128;4.436;2023-04-03T02:20:32;103216.97;;;17.65
31921;BMP280;66485;52.128;4.436;2023-04-03T02:22:59;103216.84;;;17.61
31921;BMP280;66485;52.128;4.436;2023-04-03T02:25:24;103215.00;;;17.65
31921;BMP280;66485;52.128;4.436;2023-04-03T02:27:50;103221.94;;;17.63
31921;BMP280;66485;52.128;4.436;2023-04-03T02:30:15;103221.94;;;17.63
31921;BMP280;66485;52.128;4.436;2023-04-03T02:32:42;103221.16;;;17.62
31921;BMP280;66485;52.128;4.436;2023-04-03T02:35:08;103230.69;;;17.56
31921;BMP280;66485;52.128;4.436;2023-04-03T02:37:34;103223.78;;;17.59
31921;BMP280;66485;52.128;4.436;2023-04-03T02:40:00;103230.25;;;17.54
31921;BMP280;66485;52.128;4.436;2023-04-03T02:42:25;103228.41;;;17.58
31921;BMP280;66485;52.128;4.436;2023-04-03T02:44:51;103225.66;;;17.55
31921;BMP280;66485;52.128;4.436;2023-04-03T02:47:16;103226.91;;;17.61
31921;BMP280;66485;52.128;4.436;2023-04-03T02:49:41;103230.41;;;17.61
31921;BMP280;66485;52.128;4.436;2023-04-03T02:52:10;103227.97;;;17.56
31921;BMP280;66485;52.128;4.436;2023-04-03T02:54:35;103227.97;;;17.56
31921;BMP280;66485;52.128;4.436;2023-04-03T02:57:00;103233.63;;;17.51
31921;BMP280;66485;52.128;4.436;2023-04-03T02:59:26;103229.47;;;17.54
31921;BMP280;66485;52.128;4.436;2023-04-03T03:01:51;103235.66;;;17.54
31921;BMP280;66485;52.128;4.436;2023-04-03T03:04:17;103235.66;;;17.54
31921;BMP280;66485;52.128;4.436;2023-04-03T03:06:42;103232.06;;;17.50
31921;BMP280;66485;52.128;4.436;2023-04-03T03:09:07;103233.63;;;17.51
31921;BMP280;66485;52.128;4.436;2023-04-03T03:11:33;103232.50;;;17.52
31921;BMP280;66485;52.128;4.436;2023-04-03T03:13:58;103234.00;;;17.50
31921;BMP280;66485;52.128;4.436;2023-04-03T03:16:23;103234.00;;;17.50
31921;BMP280;66485;52.128;4.436;2023-04-03T03:18:48;103237.84;;;17.49
31921;BMP280;66485;52.128;4.436;2023-04-03T03:21:14;103235.16;;;17.49
31921;BMP280;66485;52.128;4.436;2023-04-03T03:23:39;103235.16;;;17.49
31921;BMP280;66485;52.128;4.436;2023-04-03T03:26:08;103237.13;;;17.52
31921;BMP280;66485;52.128;4.436;2023-04-03T03:28:34;103237.13;;;17.52
31921;BMP280;66485;52.128;4.436;2023-04-03T03:30:59;103240.13;;;17.47
31921;BMP280;66485;52.128;4.436;2023-04-03T03:33:25;103246.69;;;17.46
31921;BMP280;66485;52.128;4.436;2023-04-03T03:35:52;103246.50;;;17.38
31921;BMP280;66485;52.128;4.436;2023-04-03T03:38:17;103252.34;;;17.40
31921;BMP280;66485;52.128;4.436;2023-04-03T03:40:43;103252.34;;;17.40
31921;BMP280;66485;52.128;4.436;2023-04-03T03:43:08;103255.19;;;17.44
31921;BMP280;66485;52.128;4.436;2023-04-03T03:45:34;103253.56;;;17.43
31921;BMP280;66485;52.128;4.436;2023-04-03T03:47:59;103257.00;;;17.40
31921;BMP280;66485;52.128;4.436;2023-04-03T03:50:24;103262.41;;;17.40
31921;BMP280;66485;52.128;4.436;2023-04-03T03:52:50;103259.00;;;17.43
31921;BMP280;66485;52.128;4.436;2023-04-03T03:55:15;103259.00;;;17.43
31921;BMP280;66485;52.128;4.436;2023-04-03T03:57:40;103255.31;;;17.35
31921;BMP280;66485;52.128;4.436;2023-04-03T04:00:07;103247.56;;;17.34
31921;BMP280;66485;52.128;4.436;2023-04-03T04:02:32;103248.75;;;17.36
31921;BMP280;66485;52.128;4.436;2023-04-03T04:04:58;103250.34;;;17.37
31921;BMP280;66485;52.128;4.436;2023-04-03T04:07:23;103249.56;;;17.37
31921;BMP280;66485;52.128;4.436;2023-04-03T04:09:48;103251.84;;;17.35
31921;BMP280;66485;52.128;4.436;2023-04-03T04:12:14;103246.84;;;17.37
31921;BMP280;66485;52.128;4.436;2023-04-03T04:14:41;103258.03;;;17.35
31921;BMP280;66485;52.128;4.436;2023-04-03T04:17:06;103258.72;;;17.32
31921;BMP280;66485;52.128;4.436;2023-04-03T04:19:31;103255.22;;;17.32
31921;BMP280;66485;52.128;4.436;2023-04-03T04:21:58;103255.22;;;17.32
31921;BMP280;66485;52.128;4.436;2023-04-03T04:24:23;103262.53;;;17.31
31921;BMP280;66485;52.128;4.436;2023-04-03T04:26:48;103266.03;;;17.32
31921;BMP280;66485;52.128;4.436;2023-04-03T04:29:14;103261.69;;;17.27
31921;BMP280;66485;52.128;4.436;2023-04-03T04:31:39;103269.25;;;17.22
31921;BMP280;66485;52.128;4.436;2023-04-03T04:34:05;103267.38;;;17.22
31921;BMP280;66485;52.128;4.436;2023-04-03T04:36:31;103262.47;;;17.28
31921;BMP280;66485;52.128;4.436;2023-04-03T04:38:56;103269.03;;;17.27
31921;BMP280;66485;52.128;4.436;2023-04-03T04:41:23;103269.03;;;17.27
31921;BMP280;66485;52.128;4.436;2023-04-03T04:43:49;103275.22;;;17.27
31921;BMP280;66485;52.128;4.436;2023-04-03T04:46:15;103272.09;;;17.25
31921;BMP280;66485;52.128;4.436;2023-04-03T04:48:40;103273.66;;;17.26
31921;BMP280;66485;52.128;4.436;2023-04-03T04:51:06;103271.38;;;17.28
31921;BMP280;66485;52.128;4.436;2023-04-03T04:53:31;103273.31;;;17.28
31921;BMP280;66485;52.128;4.436;2023-04-03T04:55:57;103272.59;;;17.31
31921;BMP280;66485;52.128;4.436;2023-04-03T04:58:22;103273.38;;;17.31
31921;BMP280;66485;52.128;4.436;2023-04-03T05:00:48;103279.50;;;17.28
31921;BMP280;66485;52.128;4.436;2023-04-03T05:03:13;103279.50;;;17.28
31921;BMP280;66485;52.128;4.436;2023-04-03T05:05:39;103283.34;;;17.27
31921;BMP280;66485;52.128;4.436;2023-04-03T05:08:04;103283.34;;;17.27
31921;BMP280;66485;52.128;4.436;2023-04-03T05:10:30;103284.50;;;17.26
31921;BMP280;66485;52.128;4.436;2023-04-03T05:12:56;103282.16;;;17.25
31921;BMP280;66485;52.128;4.436;2023-04-03T05:15:21;103292.84;;;17.21
31921;BMP280;66485;52.128;4.436;2023-04-03T05:17:47;103292.84;;;17.21
31921;BMP280;66485;52.128;4.436;2023-04-03T05:20:12;103285.84;;;17.20
31921;BMP280;66485;52.128;4.436;2023-04-03T05:22:38;103287.34;;;17.18
31921;BMP280;66485;52.128;4.436;2023-04-03T05:25:04;103287.34;;;17.18
31921;BMP280;66485;52.128;4.436;2023-04-03T05:27:29;103302.03;;;17.17
31921;BMP280;66485;52.128;4.436;2023-04-03T05:29:55;103297.41;;;17.17
31921;BMP280;66485;52.128;4.436;2023-04-03T05:32:22;103301.34;;;17.20
31921;BMP280;66485;52.128;4.436;2023-04-03T05:34:47;103298.44;;;17.13
31921;BMP280;66485;52.128;4.436;2023-04-03T05:37:12;103303.06;;;17.12
31921;BMP280;66485;52.128;4.436;2023-04-03T05:39:38;103300.56;;;17.19
31921;BMP280;66485;52.128;4.436;2023-04-03T05:42:05;103300.56;;;17.19
31921;BMP280;66485;52.128;4.436;2023-04-03T05:44:30;103290.94;;;17.22
31921;BMP280;66485;52.128;4.436;2023-04-03T05:46:56;103296.69;;;17.20
31921;BMP280;66485;52.128;4.436;2023-04-03T05:49:21;103298.97;;;17.18
31921;BMP280;66485;52.128;4.436;2023-04-03T05:51:46;103298.97;;;17.18
31921;BMP280;66485;52.128;4.436;2023-04-03T05:54:19;103302.03;;;17.17
31921;BMP280;66485;52.128;4.436;2023-04-03T05:56:45;103300.91;;;17.18
31921;BMP280;66485;52.128;4.436;2023-04-03T05:59:10;103312.53;;;17.18
31921;BMP280;66485;52.128;4.436;2023-04-03T06:01:36;103312.53;;;17.18
31921;BMP280;66485;52.128;4.436;2023-04-03T06:04:02;103312.84;;;17.17
31921;BMP280;66485;52.128;4.436;2023-04-03T06:06:56;103317.47;;;17.16
31921;BMP280;66485;52.128;4.436;2023-04-03T06:09:23;103317.47;;;17.16
31921;BMP280;66485;52.128;4.436;2023-04-03T06:11:49;103323.28;;;17.15
31921;BMP280;66485;52.128;4.436;2023-04-03T06:14:14;103321.34;;;17.15
31921;BMP280;66485;52.128;4.436;2023-04-03T06:16:40;103331.81;;;17.17
31921;BMP280;66485;52.128;4.436;2023-04-03T06:19:09;103331.81;;;17.17
31921;BMP280;66485;52.128;4.436;2023-04-03T06:21:35;103330.69;;;17.18
31921;BMP280;66485;52.128;4.436;2023-04-03T06:24:01;103330.69;;;17.18
31921;BMP280;66485;52.128;4.436;2023-04-03T06:26:27;103341.88;;;17.16
31921;BMP280;66485;52.128;4.436;2023-04-03T06:28:52;103333.75;;;17.16
31921;BMP280;66485;52.128;4.436;2023-04-03T06:31:17;103334.91;;;17.15
31921;BMP280;66485;52.128;4.436;2023-04-03T06:33:43;103334.91;;;17.15
31921;BMP280;66485;52.128;4.436;2023-04-03T06:36:10;103334.53;;;17.17
31921;BMP280;66485;52.128;4.436;2023-04-03T06:38:36;103334.53;;;17.17
31921;BMP280;66485;52.128;4.436;2023-04-03T06:41:02;103339.91;;;17.29
31921;BMP280;66485;52.128;4.436;2023-04-03T06:43:27;103338.88;;;17.33
31921;BMP280;66485;52.128;4.436;2023-04-03T06:45:53;103338.56;;;17.35
31921;BMP280;66485;52.128;4.436;2023-04-03T06:48:18;103340.47;;;17.34
31921;BMP280;66485;52.128;4.436;2023-04-03T06:50:43;103337.06;;;17.37
31921;BMP280;66485;52.128;4.436;2023-04-03T06:53:09;103337.06;;;17.37
31921;BMP280;66485;52.128;4.436;2023-04-03T06:55:34;103334.34;;;17.37
31921;BMP280;66485;52.128;4.436;2023-04-03T06:58:01;103340.53;;;17.38
31921;BMP280;66485;52.128;4.436;2023-04-03T07:00:26;103340.53;;;17.38
31921;BMP280;66485;52.128;4.436;2023-04-03T07:02:51;103352.50;;;17.37
31921;BMP280;66485;52.128;4.436;2023-04-03T07:05:17;103343.59;;;17.36
31921;BMP280;66485;52.128;4.436;2023-04-03T07:07:43;103352.09;;;17.35
31921;BMP280;66485;52.128;4.436;2023-04-03T07:10:09;103351.63;;;17.33
31921;BMP280;66485;52.128;4.436;2023-04-03T07:12:35;103351.63;;;17.33
31921;BMP280;66485;52.128;4.436;2023-04-03T07:15:00;103355.94;;;17.34
31921;BMP280;66485;52.128;4.436;2023-04-03T07:17:26;103365.16;;;17.33
31921;BMP280;66485;52.128;4.436;2023-04-03T07:19:51;103359.75;;;17.33
31921;BMP280;66485;52.128;4.436;2023-04-03T07:22:17;103359.75;;;17.33
31921;BMP280;66485;52.128;4.436;2023-04-03T07:24:43;103371.28;;;17.30
31921;BMP280;66485;52.128;4.436;2023-04-03T07:27:08;103376.34;;;17.31
31921;BMP280;66485;52.128;4.436;2023-04-03T07:29:35;103373.28;;;17.33
31921;BMP280;66485;52.128;4.436;2023-04-03T07:32:01;103378.97;;;17.28
31921;BMP280;66485;52.128;4.436;2023-04-03T07:34:27;103371.19;;;17.26
31921;BMP280;66485;52.128;4.436;2023-04-03T07:36:52;103371.28;;;17.30
31921;BMP280;66485;52.128;4.436;2023-04-03T07:39:17;103373.88;;;17.26
31921;BMP280;66485;52.128;4.436;2023-04-03T07:41:43;103378.97;;;17.28
31921;BMP280;66485;52.128;4.436;2023-04-03T07:44:08;103378.97;;;17.28
31921;BMP280;66485;52.128;4.436;2023-04-03T07:46:35;103378.19;;;17.27
31921;BMP280;66485;52.128;4.436;2023-04-03T07:49:00;103374.00;;;17.30
31921;BMP280;66485;52.128;4.436;2023-04-03T07:51:25;103382.38;;;17.25
31921;BMP280;66485;52.128;4.436;2023-04-03T07:53:51;103387.81;;;17.25
31921;BMP280;66485;52.128;4.436;2023-04-03T07:56:17;103388.16;;;17.23
31921;BMP280;66485;52.128;4.436;2023-04-03T07:58:42;103388.16;;;17.23
31921;BMP280;66485;52.128;4.436;2023-04-03T08:01:08;103405.84;;;17.21
31921;BMP280;66485;52.128;4.436;2023-04-03T08:03:33;103404.28;;;17.20
31921;BMP280;66485;52.128;4.436;2023-04-03T08:06:06;103404.28;;;17.20
31921;BMP280;66485;52.128;4.436;2023-04-03T08:08:32;103405.63;;;17.26
31921;BMP280;66485;52.128;4.436;2023-04-03T08:10:59;103405.63;;;17.26
31921;BMP280;66485;52.128;4.436;2023-04-03T08:13:26;103408.31;;;17.26
31921;BMP280;66485;52.128;4.436;2023-04-03T08:15:51;103414.91;;;17.25
31921;BMP280;66485;52.128;4.436;2023-04-03T08:18:17;103414.91;;;17.25
31921;BMP280;66485;52.128;4.436;2023-04-03T08:20:44;103408.53;;;17.21
31921;BMP280;66485;52.128;4.436;2023-04-03T08:23:10;103411.47;;;17.28
31921;BMP280;66485;52.128;4.436;2023-04-03T08:25:40;103411.47;;;17.28
31921;BMP280;66485;52.128;4.436;2023-04-03T08:28:06;103400.56;;;17.24
31921;BMP280;66485;52.128;4.436;2023-04-03T08:30:31;103408.69;;;17.24
31921;BMP280;66485;52.128;4.436;2023-04-03T08:32:57;103416.09;;;17.27
31921;BMP280;66485;52.128;4.436;2023-04-03T08:35:22;103408.69;;;17.24
31921;BMP280;66485;52.128;4.436;2023-04-03T08:37:47;103411.41;;;17.24
31921;BMP280;66485;52.128;4.436;2023-04-03T08:40:15;103411.41;;;17.24
31921;BMP280;66485;52.128;4.436;2023-04-03T08:45:16;103423.81;;;17.25
31921;BMP280;66485;52.128;4.436;2023-04-03T08:48:05;103420.31;;;17.25
31921;BMP280;66485;52.128;4.436;2023-04-03T08:50:40;103420.31;;;17.25
31921;BMP280;66485;52.128;4.436;2023-04-03T08:53:13;103416.19;;;17.31
31921;BMP280;66485;52.128;4.436;2023-04-03T08:55:46;103421.28;;;17.45
31921;BMP280;66485;52.128;4.436;2023-04-03T08:58:15;103421.28;;;17.45
31921;BMP280;66485;52.128;4.436;2023-04-03T09:00:46;103408.16;;;17.47
31921;BMP280;66485;52.128;4.436;2023-04-03T09:03:14;103408.16;;;17.47
31921;BMP280;66485;52.128;4.436;2023-04-03T09:08:43;103404.38;;;17.51
31921;BMP280;66485;52.128;4.436;2023-04-03T09:11:27;103404.38;;;17.51
31921;BMP280;66485;52.128;4.436;2023-04-03T09:14:13;103412.88;;;17.50
31921;BMP280;66485;52.128;4.436;2023-04-03T09:16:52;103415.22;;;17.51
31921;BMP280;66485;52.128;4.436;2023-04-03T09:19:38;103415.22;;;17.51
31921;BMP280;66485;52.128;4.436;2023-04-03T09:22:27;103404.03;;;17.53
31921;BMP280;66485;52.128;4.436;2023-04-03T09:27:35;103402.13;;;17.53
31921;BMP280;66485;52.128;4.436;2023-04-03T09:30:01;103401.34;;;17.53
31921;BMP280;66485;52.128;4.436;2023-04-03T09:32:34;103391.28;;;17.53
31921;BMP280;66485;52.128;4.436;2023-04-03T09:35:30;103395.69;;;17.58
31921;BMP280;66485;52.128;4.436;2023-04-03T09:43:29;103387.47;;;17.70
31921;BMP280;66485;52.128;4.436;2023-04-03T09:46:15;103389.50;;;17.73
31921;BMP280;66485;52.128;4.436;2023-04-03T09:48:55;103391.97;;;17.78
31921;BMP280;66485;52.128;4.436;2023-04-03T09:51:25;103390.13;;;17.82
31921;BMP280;66485;52.128;4.436;2023-04-03T09:53:52;103388.28;;;17.86
31921;BMP280;66485;52.128;4.436;2023-04-03T09:58:45;103376.47;;;17.94
31921;BMP280;66485;52.128;4.436;2023-04-03T10:06:32;103370.13;;;18.02
31921;BMP280;66485;52.128;4.436;2023-04-03T10:09:03;103374.59;;;18.10
31921;BMP280;66485;52.128;4.436;2023-04-03T10:11:30;103367.31;;;18.14
31921;BMP280;66485;52.128;4.436;2023-04-03T10:14:00;103367.31;;;18.14
31921;BMP280;66485;52.128;4.436;2023-04-03T10:16:32;103353.16;;;18.21
31921;BMP280;66485;52.128;4.436;2023-04-03T10:22:00;103352.44;;;18.24
31921;BMP280;66485;52.128;4.436;2023-04-03T10:29:55;103358.72;;;18.44
31921;BMP280;66485;52.128;4.436;2023-04-03T10:32:54;103353.34;;;18.47
31921;BMP280;66485;52.128;4.436;2023-04-03T10:35:51;103354.94;;;18.48
31921;BMP280;66485;52.128;4.436;2023-04-03T10:41:14;103349.75;;;18.59
31921;BMP280;66485;52.128;4.436;2023-04-03T10:43:52;103349.50;;;18.64
31921;BMP280;66485;52.128;4.436;2023-04-03T10:46:27;103349.50;;;18.64
31921;BMP280;66485;52.128;4.436;2023-04-03T10:49:09;103341.13;;;18.73
31921;BMP280;66485;52.128;4.436;2023-04-03T10:52:10;103351.28;;;18.76
31921;BMP280;66485;52.128;4.436;2023-04-03T10:54:43;103346.34;;;18.81
31921;BMP280;66485;52.128;4.436;2023-04-03T10:57:10;103346.34;;;18.81
31921;BMP280;66485;52.128;4.436;2023-04-03T11:02:17;103339.19;;;19.12
31921;BMP280;66485;52.128;4.436;2023-04-03T11:04:48;103335.06;;;19.18
31921;BMP280;66485;52.128;4.436;2023-04-03T11:07:17;103335.06;;;19.18
31921;BMP280;66485;52.128;4.436;2023-04-03T11:09:47;103326.22;;;19.24
31921;BMP280;66485;52.128;4.436;2023-04-03T11:12:21;103331.88;;;19.35
31921;BMP280;66485;52.128;4.436;2023-04-03T11:14:50;103321.91;;;19.43
31921;BMP280;66485;52.128;4.436;2023-04-03T11:22:43;103335.00;;;19.60
31921;BMP280;66485;52.128;4.436;2023-04-03T11:27:44;103324.03;;;19.76
31921;BMP280;66485;52.128;4.436;2023-04-03T11:36:07;103308.25;;;19.85
31921;BMP280;66485;52.128;4.436;2023-04-03T11:38:42;103308.25;;;19.85
31921;BMP280;66485;52.128;4.436;2023-04-03T11:41:10;103290.19;;;19.99
31921;BMP280;66485;52.128;4.436;2023-04-03T11:43:43;103290.19;;;19.99
31921;BMP280;66485;52.128;4.436;2023-04-03T11:46:20;103278.25;;;20.07
31921;BMP280;66485;52.128;4.436;2023-04-03T11:48:48;103278.25;;;20.07
31921;BMP280;66485;52.128;4.436;2023-04-03T11:53:43;103280.41;;;20.25
31921;BMP280;66485;52.128;4.436;2023-04-03T12:04:10;103277.78;;;20.28
31921;BMP280;66485;52.128;4.436;2023-04-03T12:09:22;103271.59;;;20.31
31921;BMP280;66485;52.128;4.436;2023-04-03T12:11:48;103259.63;;;20.36
31921;BMP280;66485;52.128;4.436;2023-04-03T12:14:15;103259.63;;;20.36
31921;BMP280;66485;52.128;4.436;2023-04-03T12:37:39;103244.34;;;20.61
31921;BMP280;66485;52.128;4.436;2023-04-03T12:43:14;103235.63;;;20.82
31921;BMP280;66485;52.128;4.436;2023-04-03T12:48:16;103243.50;;;20.94
31921;BMP280;66485;52.128;4.436;2023-04-03T12:50:45;103235.13;;;21.17
31921;BMP280;66485;52.128;4.436;2023-04-03T12:53:18;103234.84;;;21.29
31921;BMP280;66485;52.128;4.436;2023-04-03T12:55:43;103235.56;;;21.19
31921;BMP280;66485;52.128;4.436;2023-04-03T12:58:26;103232.34;;;21.06
31921;BMP280;66485;52.128;4.436;2023-04-03T13:01:12;103221.09;;;21.11
31921;BMP280;66485;52.128;4.436;2023-04-03T13:03:40;103223.88;;;21.18
31921;BMP280;66485;52.128;4.436;2023-04-03T13:06:14;103225.78;;;21.14
31921;BMP280;66485;52.128;4.436;2023-04-03T13:08:50;103221.91;;;21.15
31921;BMP280;66485;52.128;4.436;2023-04-03T13:11:16;103226.28;;;21.27
31921;BMP280;66485;52.128;4.436;2023-04-03T13:13:57;103231.72;;;21.27
31921;BMP280;66485;52.128;4.436;2023-04-03T13:16:23;103231.72;;;21.27
31921;BMP280;66485;52.128;4.436;2023-04-03T13:18:55;103212.66;;;21.27
31921;BMP280;66485;52.128;4.436;2023-04-03T13:21:26;103220.47;;;21.32
31921;BMP280;66485;52.128;4.436;2023-04-03T13:23:56;103214.28;;;21.39
31921;BMP280;66485;52.128;4.436;2023-04-03T13:26:24;103222.09;;;21.40
31921;BMP280;66485;52.128;4.436;2023-04-03T13:28:52;103212.72;;;21.41
31921;BMP280;66485;52.128;4.436;2023-04-03T13:31:25;103212.72;;;21.41
31921;BMP280;66485;52.128;4.436;2023-04-03T13:36:37;103208.19;;;21.56
31921;BMP280;66485;52.128;4.436;2023-04-03T13:41:35;103192.19;;;21.58
31921;BMP280;66485;52.128;4.436;2023-04-03T13:46:52;103196.97;;;21.72
31921;BMP280;66485;52.128;4.436;2023-04-03T13:49:35;103190.00;;;21.88
31921;BMP280;66485;52.128;4.436;2023-04-03T13:52:17;103195.44;;;21.85
31921;BMP280;66485;52.128;4.436;2023-04-03T13:54:52;103197.38;;;21.81
31921;BMP280;66485;52.128;4.436;2023-04-03T13:57:18;103192.31;;;21.83
31921;BMP280;66485;52.128;4.436;2023-04-03T13:59:44;103200.13;;;21.84
31921;BMP280;66485;52.128;4.436;2023-04-03T14:07:13;103192.78;;;21.95
31921;BMP280;66485;52.128;4.436;2023-04-03T14:09:39;103184.63;;;21.99
31921;BMP280;66485;52.128;4.436;2023-04-03T14:12:08;103172.91;;;22.05
31921;BMP280;66485;52.128;4.436;2023-04-03T14:14:37;103179.16;;;22.02
31921;BMP280;66485;52.128;4.436;2023-04-03T14:17:13;103181.09;;;22.05
31921;BMP280;66485;52.128;4.436;2023-04-03T14:19:39;103181.09;;;22.05
31921;BMP280;66485;52.128;4.436;2023-04-03T14:22:13;103162.44;;;22.18
31921;BMP280;66485;52.128;4.436;2023-04-03T14:24:38;103165.97;;;22.22
31921;BMP280;66485;52.128;4.436;2023-04-03T14:27:13;103158.56;;;22.26
31921;BMP280;66485;52.128;4.436;2023-04-03T14:29:39;103167.91;;;22.25
31921;BMP280;66485;52.128;4.436;2023-04-03T14:32:05;103161.66;;;22.28
31921;BMP280;66485;52.128;4.436;2023-04-03T14:34:31;103163.63;;;22.24
31921;BMP280;66485;52.128;4.436;2023-04-03T14:36:56;103167.13;;;22.28
31921;BMP280;66485;52.128;4.436;2023-04-03T14:39:21;103154.25;;;22.25
31921;BMP280;66485;52.128;4.436;2023-04-03T14:41:47;103154.66;;;22.27
31921;BMP280;66485;52.128;4.436;2023-04-03T14:44:12;103154.66;;;22.27
31921;BMP280;66485;52.128;4.436;2023-04-03T14:46:44;103149.56;;;22.29
31921;BMP280;66485;52.128;4.436;2023-04-03T14:49:15;103156.63;;;22.30
31921;BMP280;66485;52.128;4.436;2023-04-03T14:51:41;103158.56;;;22.37
31921;BMP280;66485;52.128;4.436;2023-04-03T14:54:13;103151.94;;;22.38
31921;BMP280;66485;52.128;4.436;2023-04-03T14:56:39;103157.78;;;22.36
31921;BMP280;66485;52.128;4.436;2023-04-03T14:59:09;103157.78;;;22.36
31921;BMP280;66485;52.128;4.436;2023-04-03T15:01:36;103160.53;;;22.43
31921;BMP280;66485;52.128;4.436;2023-04-03T15:04:01;103160.53;;;22.43
31921;BMP280;66485;52.128;4.436;2023-04-03T15:06:26;103155.06;;;22.40
31921;BMP280;66485;52.128;4.436;2023-04-03T15:08:52;103160.50;;;22.40
31921;BMP280;66485;52.128;4.436;2023-04-03T15:11:17;103157.78;;;22.47
31921;BMP280;66485;52.128;4.436;2023-04-03T15:13:42;103150.03;;;22.42
31921;BMP280;66485;52.128;4.436;2023-04-03T15:16:19;103144.56;;;22.42
31921;BMP280;66485;52.128;4.436;2023-04-03T15:18:45;103136.34;;;22.49
31921;BMP280;66485;52.128;4.436;2023-04-03T15:21:11;103136.34;;;22.49
31921;BMP280;66485;52.128;4.436;2023-04-03T15:23:37;103137.16;;;22.53
31921;BMP280;66485;52.128;4.436;2023-04-03T15:26:03;103132.44;;;22.50
31921;BMP280;66485;52.128;4.436;2023-04-03T15:28:42;103130.47;;;22.47
31921;BMP280;66485;52.128;4.436;2023-04-03T15:31:08;103130.47;;;22.47
31921;BMP280;66485;52.128;4.436;2023-04-03T15:33:34;103130.50;;;22.54
31921;BMP280;66485;52.128;4.436;2023-04-03T15:35:59;103137.94;;;22.54
31921;BMP280;66485;52.128;4.436;2023-04-03T15:38:25;103124.66;;;22.63
31921;BMP280;66485;52.128;4.436;2023-04-03T15:40:50;103130.88;;;22.60
31921;BMP280;66485;52.128;4.436;2023-04-03T15:43:16;103130.88;;;22.60
31921;BMP280;66485;52.128;4.436;2023-04-03T15:45:41;103130.91;;;22.63
31921;BMP280;66485;52.128;4.436;2023-04-03T15:48:09;103126.59;;;22.59
31921;BMP280;66485;52.128;4.436;2023-04-03T15:50:34;103116.06;;;22.57